createdAt,value
2022-11-03T00:01:34.821Z,2.73
2022-11-03T00:04:02.120Z,2.57
2022-11-03T00:06:29.321Z,2.90
2022-11-03T00:08:58.837Z,3.53
2022-11-03T00:11:26.396Z,2.63
2022-11-03T00:13:53.932Z,2.73
2022-11-03T00:16:21.311Z,2.97
2022-11-03T00:18:48.502Z,2.70
2022-11-03T00:21:15.651Z,3.00
2022-11-03T00:23:43.917Z,2.50
2022-11-03T00:26:27.168Z,2.33
2022-11-03T00:28:55.174Z,3.07
2022-11-03T00:31:26.796Z,2.70
2022-11-03T00:33:54.529Z,3.23
2022-11-03T00:36:23.069Z,2.40
2022-11-03T00:38:50.546Z,2.30
2022-11-03T00:41:23.335Z,2.50
2022-11-03T00:43:53.181Z,2.63
2022-11-03T00:46:21.069Z,2.20
2022-11-03T00:48:48.434Z,2.37
2022-11-03T00:51:27.873Z,2.67
2022-11-03T00:53:56.106Z,2.73
2022-11-03T00:56:38.506Z,2.97
2022-11-03T00:59:07.361Z,2.10
2022-11-03T01:01:39.362Z,2.70
2022-11-03T01:04:27.757Z,2.67
2022-11-03T01:06:56.157Z,2.33
2022-11-03T01:09:23.302Z,2.40
2022-11-03T01:11:53.392Z,2.33
2022-11-03T01:14:20.733Z,2.67
2022-11-03T01:16:47.976Z,2.20
2022-11-03T01:19:16.905Z,2.87
2022-11-03T01:21:44.534Z,2.40
2022-11-03T01:24:11.809Z,2.87
2022-11-03T01:26:39.718Z,2.70
2022-11-03T01:29:07.257Z,2.30
2022-11-03T01:31:34.504Z,2.50
2022-11-03T01:34:01.701Z,2.77
2022-11-03T01:36:29.271Z,2.63
2022-11-03T01:39:00.006Z,2.70
2022-11-03T01:41:28.435Z,3.37
2022-11-03T01:44:07.914Z,2.80
2022-11-03T01:47:03.743Z,3.07
2022-11-03T01:52:23.757Z,3.13
2022-11-03T01:54:54.723Z,3.17
2022-11-03T01:57:28.903Z,3.43
2022-11-03T01:59:58.592Z,3.13
2022-11-03T02:02:26.697Z,2.67
2022-11-03T02:04:56.289Z,2.40
2022-11-03T02:07:25.733Z,1.90
2022-11-03T02:10:05.371Z,2.37
2022-11-03T02:12:33.379Z,2.60
2022-11-03T02:15:02.519Z,2.90
2022-11-03T02:17:30.978Z,3.30
2022-11-03T02:20:03.251Z,3.40
2022-11-03T02:22:43.276Z,2.67
2022-11-03T02:25:29.635Z,2.60
2022-11-03T02:27:56.777Z,2.70
2022-11-03T02:30:38.221Z,2.87
2022-11-03T02:33:24.273Z,2.97
2022-11-03T02:36:03.571Z,2.93
2022-11-03T02:38:31.877Z,2.40
2022-11-03T02:41:01.378Z,2.93
2022-11-03T02:43:29.603Z,3.07
2022-11-03T02:45:56.923Z,2.93
2022-11-03T02:48:24.124Z,2.37
2022-11-03T02:50:51.238Z,2.47
2022-11-03T02:53:20.422Z,2.80
2022-11-03T02:56:01.186Z,2.73
2022-11-03T02:58:45.142Z,2.70
2022-11-03T03:01:15.195Z,3.03
2022-11-03T03:03:46.668Z,2.57
2022-11-03T03:09:21.438Z,2.30
2022-11-03T03:11:49.918Z,3.20
2022-11-03T03:14:19.336Z,2.50
2022-11-03T03:16:52.687Z,3.53
2022-11-03T03:19:26.774Z,2.90
2022-11-03T03:21:54.864Z,2.67
2022-11-03T03:24:39.290Z,2.50
2022-11-03T03:27:09.983Z,2.67
2022-11-03T03:30:08.050Z,3.23
2022-11-03T03:32:41.026Z,2.57
2022-11-03T03:35:11.119Z,2.93
2022-11-03T03:37:40.251Z,2.90
2022-11-03T03:40:10.291Z,2.90
2022-11-03T03:42:38.040Z,2.30
2022-11-03T03:45:07.103Z,3.20
2022-11-03T03:47:38.009Z,2.77
2022-11-03T03:50:05.662Z,3.00
2022-11-03T03:52:34.351Z,2.60
2022-11-03T03:55:01.602Z,2.43
2022-11-03T03:57:31.138Z,2.40
2022-11-03T03:59:58.503Z,2.90
2022-11-03T04:02:25.742Z,2.87
2022-11-03T04:04:53.005Z,3.00
2022-11-03T04:07:42.588Z,2.90
2022-11-03T04:10:17.799Z,2.77
2022-11-03T04:13:04.027Z,2.80
2022-11-03T04:15:50.649Z,2.40
2022-11-03T04:18:37.125Z,2.67
2022-11-03T04:21:23.217Z,2.27
2022-11-03T04:23:50.606Z,2.60
2022-11-03T04:26:18.804Z,2.37
2022-11-03T04:28:46.463Z,2.90
2022-11-03T04:31:14.986Z,3.27
2022-11-03T04:33:42.711Z,2.80
2022-11-03T04:36:12.370Z,2.47
2022-11-03T04:38:39.517Z,3.27
2022-11-03T04:41:08.418Z,2.97
2022-11-03T04:43:36.505Z,2.50
2022-11-03T04:46:04.066Z,2.90
2022-11-03T04:48:31.988Z,2.57
2022-11-03T04:53:35.021Z,2.47
2022-11-03T04:56:07.140Z,3.30
2022-11-03T04:58:35.536Z,2.60
2022-11-03T05:01:04.047Z,3.17
2022-11-03T05:03:33.099Z,3.63
2022-11-03T05:06:02.564Z,3.07
2022-11-03T05:08:29.740Z,2.93
2022-11-03T05:10:56.852Z,3.43
2022-11-03T05:13:25.300Z,3.00
2022-11-03T05:15:53.775Z,2.30
2022-11-03T05:18:21.926Z,2.87
2022-11-03T05:20:51.167Z,2.83
2022-11-03T05:23:18.959Z,2.70
2022-11-03T05:25:48.028Z,2.80
2022-11-03T05:28:23.330Z,2.67
2022-11-03T05:30:50.897Z,1.97
2022-11-03T05:33:27.544Z,2.70
2022-11-03T05:35:55.844Z,4.93
2022-11-03T05:38:23.889Z,3.30
2022-11-03T05:40:52.588Z,3.07
2022-11-03T05:43:20.469Z,4.10
2022-11-03T05:45:48.600Z,3.13
2022-11-03T05:48:35.452Z,3.30
2022-11-03T05:51:15.106Z,2.67
2022-11-03T05:53:43.548Z,2.00
2022-11-03T05:56:16.020Z,2.97
2022-11-03T05:58:43.886Z,2.50
2022-11-03T06:01:14.123Z,2.80
2022-11-03T06:03:41.480Z,2.47
2022-11-03T06:06:17.418Z,2.87
2022-11-03T06:08:46.145Z,3.00
2022-11-03T06:11:32.326Z,3.20
2022-11-03T06:14:00.111Z,3.13
2022-11-03T06:16:44.077Z,3.20
2022-11-03T06:19:18.401Z,3.23
2022-11-03T06:21:45.741Z,2.70
2022-11-03T06:24:15.129Z,3.43
2022-11-03T06:26:43.983Z,3.43
2022-11-03T06:29:14.005Z,2.80
2022-11-03T06:31:41.223Z,3.10
2022-11-03T06:34:17.587Z,3.53
2022-11-03T06:36:44.708Z,2.93
2022-11-03T06:39:18.632Z,2.87
2022-11-03T06:41:45.826Z,2.57
2022-11-03T06:44:28.540Z,2.80
2022-11-03T06:47:02.812Z,2.60
2022-11-03T06:49:36.439Z,3.17
2022-11-03T06:52:06.981Z,2.97
2022-11-03T06:54:59.068Z,2.80
2022-11-03T06:57:26.451Z,3.00
2022-11-03T07:00:06.710Z,3.17
2022-11-03T07:02:53.505Z,2.73
2022-11-03T07:05:26.724Z,2.80
2022-11-03T07:07:55.750Z,2.77
2022-11-03T07:10:25.025Z,2.57
2022-11-03T07:12:52.413Z,2.83
2022-11-03T07:15:37.727Z,3.37
2022-11-03T07:18:06.693Z,2.67
2022-11-03T07:20:34.028Z,2.93
2022-11-03T07:23:02.274Z,3.27
2022-11-03T07:25:29.544Z,3.10
2022-11-03T07:27:57.555Z,3.03
2022-11-03T07:30:26.038Z,3.03
2022-11-03T07:32:53.987Z,2.70
2022-11-03T07:35:53.175Z,2.50
2022-11-03T07:38:20.843Z,2.97
2022-11-03T07:40:48.081Z,3.30
2022-11-03T07:43:16.919Z,3.00
2022-11-03T07:45:52.278Z,3.43
2022-11-03T07:48:21.030Z,3.40
2022-11-03T07:50:48.962Z,2.90
2022-11-03T07:53:34.841Z,2.77
2022-11-03T07:56:02.957Z,4.03
2022-11-03T07:58:35.337Z,2.90
2022-11-03T08:01:02.839Z,2.63
2022-11-03T08:03:48.337Z,2.90
2022-11-03T08:06:18.757Z,3.13
2022-11-03T08:08:47.351Z,2.60
2022-11-03T08:13:41.313Z,3.10
2022-11-03T08:16:08.270Z,3.00
2022-11-03T08:18:35.200Z,3.37
2022-11-03T08:21:02.041Z,2.50
2022-11-03T08:23:29.323Z,3.10
2022-11-03T08:25:56.296Z,3.27
2022-11-03T08:28:23.250Z,3.30
2022-11-03T08:30:50.063Z,3.20
2022-11-03T08:33:17.122Z,3.20
2022-11-03T08:35:43.941Z,3.70
2022-11-03T08:38:10.745Z,3.20
2022-11-03T08:40:37.499Z,3.03
2022-11-03T08:43:05.870Z,3.20
2022-11-03T08:45:32.648Z,3.30
2022-11-03T08:47:59.415Z,3.20
2022-11-03T08:50:26.241Z,2.47
2022-11-03T08:52:53.134Z,3.57
2022-11-03T08:55:19.861Z,2.93
2022-11-03T08:57:47.340Z,2.57
2022-11-03T09:00:16.786Z,3.27
2022-11-03T09:02:44.672Z,3.10
2022-11-03T09:05:14.881Z,4.00
2022-11-03T09:10:33.442Z,3.50
2022-11-03T09:13:01.301Z,3.43
2022-11-03T09:15:28.244Z,3.60
2022-11-03T09:17:55.006Z,2.47
2022-11-03T09:20:21.831Z,3.40
2022-11-03T09:22:48.575Z,2.70
2022-11-03T09:25:15.309Z,2.53
2022-11-03T09:27:42.437Z,3.00
2022-11-03T09:30:14.104Z,3.93
2022-11-03T09:32:41.691Z,2.33
2022-11-03T09:35:09.915Z,2.80
2022-11-03T09:37:36.895Z,2.93
2022-11-03T09:40:04.567Z,2.63
2022-11-03T09:42:34.363Z,2.73
2022-11-03T09:45:02.023Z,2.53
2022-11-03T09:47:35.173Z,2.63
2022-11-03T09:50:02.489Z,2.67
2022-11-03T09:52:30.868Z,2.40
2022-11-03T09:54:59.596Z,2.73
2022-11-03T09:57:28.156Z,2.80
2022-11-03T09:59:55.545Z,2.47
2022-11-03T10:02:29.663Z,2.93
2022-11-03T10:04:58.739Z,2.53
2022-11-03T10:07:27.666Z,3.00
2022-11-03T10:09:56.296Z,2.70
2022-11-03T10:12:25.107Z,3.00
2022-11-03T10:14:52.630Z,2.93
2022-11-03T10:17:25.490Z,3.47
2022-11-03T10:19:55.736Z,3.67
2022-11-03T10:22:23.029Z,3.00
2022-11-03T10:25:09.956Z,3.63
2022-11-03T10:27:36.634Z,2.70
2022-11-03T10:30:07.542Z,2.60
2022-11-03T10:32:35.083Z,2.57
2022-11-03T10:35:03.640Z,2.50
2022-11-03T10:37:30.459Z,2.50
2022-11-03T10:39:58.665Z,2.60
2022-11-03T10:42:35.222Z,2.70
2022-11-03T10:45:20.397Z,3.50
2022-11-03T10:48:01.320Z,3.17
2022-11-03T10:50:28.462Z,3.00
2022-11-03T10:52:55.973Z,4.23
2022-11-03T10:55:25.404Z,2.90
2022-11-03T10:57:55.737Z,2.73
2022-11-03T11:00:22.676Z,3.10
2022-11-03T11:02:51.666Z,2.60
2022-11-03T11:05:23.450Z,3.07
2022-11-03T11:07:54.545Z,2.93
2022-11-03T11:10:29.719Z,2.60
2022-11-03T11:13:03.771Z,2.57
2022-11-03T11:15:41.890Z,2.87
2022-11-03T11:18:09.391Z,2.80
2022-11-03T11:20:43.992Z,2.70
2022-11-03T11:23:28.889Z,2.40
2022-11-03T11:26:10.708Z,2.27
2022-11-03T11:28:43.033Z,2.50
2022-11-03T11:31:42.866Z,2.43
2022-11-03T11:34:09.726Z,2.20
2022-11-03T11:36:41.369Z,2.97
2022-11-03T11:39:11.905Z,2.67
2022-11-03T11:42:06.782Z,2.30
2022-11-03T11:44:48.278Z,2.27
2022-11-03T11:47:25.819Z,2.37
2022-11-03T11:50:07.575Z,2.30
2022-11-03T11:52:48.519Z,2.40
2022-11-03T11:55:32.603Z,2.97
2022-11-03T11:58:01.667Z,3.43
2022-11-03T12:00:31.510Z,2.90
2022-11-03T12:03:01.163Z,3.00
2022-11-03T12:05:34.310Z,2.50
2022-11-03T12:08:01.387Z,2.70
2022-11-03T12:10:31.332Z,2.33
2022-11-03T12:12:59.980Z,2.80
2022-11-03T12:15:55.615Z,2.63
2022-11-03T12:18:50.632Z,2.93
2022-11-03T12:21:47.145Z,2.40
2022-11-03T12:24:32.308Z,2.33
2022-11-03T12:27:04.136Z,2.50
2022-11-03T12:29:30.886Z,2.20
2022-11-03T12:31:57.683Z,2.30
2022-11-03T12:34:24.482Z,2.93
2022-11-03T12:36:55.937Z,2.40
2022-11-03T12:39:23.123Z,2.43
2022-11-03T12:41:49.844Z,2.83
2022-11-03T12:44:16.890Z,3.37
2022-11-03T12:46:43.804Z,2.80
2022-11-03T12:49:10.478Z,2.43
2022-11-03T12:51:37.251Z,2.80
2022-11-03T12:54:04.044Z,2.20
2022-11-03T12:56:30.737Z,2.30
2022-11-03T12:58:57.443Z,2.80
2022-11-03T13:01:24.289Z,2.43
2022-11-03T13:03:51.262Z,2.40
2022-11-03T13:06:18.056Z,2.20
2022-11-03T13:08:46.689Z,2.50
2022-11-03T13:11:34.382Z,2.63
2022-11-03T13:14:01.080Z,2.30
2022-11-03T13:16:27.897Z,2.63
2022-11-03T13:18:54.599Z,2.50
2022-11-03T13:21:21.626Z,1.93
2022-11-03T13:23:48.423Z,2.90
2022-11-03T13:26:16.857Z,2.50
2022-11-03T13:28:43.622Z,2.67
2022-11-03T13:31:10.722Z,2.50
2022-11-03T13:33:37.472Z,2.30
2022-11-03T13:36:04.468Z,3.00
2022-11-03T13:38:31.314Z,2.93
2022-11-03T13:41:03.568Z,2.97
2022-11-03T13:43:32.294Z,2.73
2022-11-03T13:46:02.246Z,3.70
2022-11-03T13:51:17.700Z,2.50
2022-11-03T13:56:32.061Z,2.00
2022-11-03T14:01:46.186Z,2.63
2022-11-03T14:09:41.575Z,2.23
2022-11-03T14:12:27.034Z,2.27
2022-11-03T14:14:53.707Z,2.33
2022-11-03T14:17:20.648Z,2.00
2022-11-03T14:19:52.068Z,2.60
2022-11-03T14:22:20.596Z,2.53
2022-11-03T14:24:47.432Z,2.13
2022-11-03T14:27:15.952Z,2.33
2022-11-03T14:29:49.769Z,2.10
2022-11-03T14:32:17.740Z,2.83
2022-11-03T14:34:45.214Z,2.50
2022-11-03T14:37:12.903Z,2.60
2022-11-03T14:39:40.274Z,2.10
2022-11-03T14:42:15.102Z,2.23
2022-11-03T14:44:43.332Z,1.90
2022-11-03T14:50:15.262Z,2.10
2022-11-03T14:52:42.092Z,2.03
2022-11-03T14:55:09.267Z,1.90
2022-11-03T14:57:35.980Z,2.17
2022-11-03T15:00:03.243Z,1.80
2022-11-03T15:02:30.150Z,1.67
2022-11-03T15:04:56.948Z,2.00
2022-11-03T15:07:23.674Z,1.73
2022-11-03T15:09:51.304Z,1.93
2022-11-03T15:12:18.130Z,2.00
2022-11-03T15:14:44.795Z,1.90
2022-11-03T15:17:11.577Z,1.77
2022-11-03T15:19:38.314Z,1.90
2022-11-03T15:22:05.057Z,2.07
2022-11-03T15:27:18.462Z,2.10
2022-11-03T15:29:45.268Z,2.07
2022-11-03T15:32:12.023Z,1.80
2022-11-03T15:34:38.861Z,2.03
2022-11-03T15:37:05.568Z,1.97
2022-11-03T15:39:32.637Z,2.00
2022-11-03T15:42:00.301Z,2.30
2022-11-03T15:44:27.160Z,2.47
2022-11-03T15:46:53.884Z,2.57
2022-11-03T15:49:20.725Z,2.10
2022-11-03T15:51:47.434Z,2.10
2022-11-03T15:54:14.246Z,2.50
2022-11-03T15:56:41.030Z,2.27
2022-11-03T15:59:07.724Z,2.20
2022-11-03T16:01:35.536Z,2.17
2022-11-03T16:04:04.946Z,2.20
2022-11-03T16:07:06.900Z,2.20
2022-11-03T16:09:18.428Z,2.40
2022-11-03T16:11:45.128Z,2.53
2022-11-03T16:14:11.877Z,2.90
2022-11-03T16:16:38.575Z,2.67
2022-11-03T16:19:05.437Z,2.40
2022-11-03T16:21:32.209Z,2.50
2022-11-03T16:23:59.133Z,2.20
2022-11-03T16:26:25.863Z,3.17
2022-11-03T16:28:52.628Z,2.47
2022-11-03T16:31:19.360Z,2.60
2022-11-03T16:33:46.115Z,2.50
2022-11-03T16:36:12.848Z,2.70
2022-11-03T16:38:39.775Z,2.70
2022-11-03T16:41:06.568Z,2.73
2022-11-03T16:43:33.342Z,2.50
2022-11-03T16:46:00.069Z,3.97
2022-11-03T16:48:26.846Z,3.33
2022-11-03T16:50:56.756Z,2.20
2022-11-03T16:53:24.541Z,2.77
2022-11-03T16:55:51.460Z,2.70
2022-11-03T16:58:18.413Z,3.10
2022-11-03T17:00:45.307Z,3.53
2022-11-03T17:03:12.388Z,3.67
2022-11-03T17:05:39.378Z,2.73
2022-11-03T17:08:09.936Z,3.70
2022-11-03T17:10:42.862Z,3.30
2022-11-03T17:13:10.364Z,3.10
2022-11-03T17:15:37.297Z,3.70
2022-11-03T17:18:04.257Z,4.10
2022-11-03T17:20:31.142Z,3.83
2022-11-03T17:22:58.021Z,3.47
2022-11-03T17:25:25.547Z,3.60
2022-11-03T17:27:55.383Z,3.10
2022-11-03T17:30:24.420Z,4.67
2022-11-03T17:32:55.128Z,5.33
2022-11-03T17:35:28.381Z,6.73
2022-11-03T17:37:55.290Z,5.80
2022-11-03T17:40:25.308Z,6.53
2022-11-03T17:42:52.649Z,4.60
2022-11-03T17:45:21.397Z,4.37
2022-11-03T17:47:49.636Z,4.60
2022-11-03T17:50:22.144Z,4.27
2022-11-03T17:52:50.572Z,3.33
2022-11-03T17:55:27.730Z,3.90
2022-11-03T17:57:56.093Z,4.17
2022-11-03T18:00:23.551Z,3.63
2022-11-03T18:02:51.791Z,3.57
2022-11-03T18:05:27.117Z,2.97
2022-11-03T18:07:54.958Z,2.90
2022-11-03T18:10:30.436Z,2.93
2022-11-03T18:13:16.552Z,3.43
2022-11-03T18:16:11.990Z,3.03
2022-11-03T18:18:41.902Z,3.67
2022-11-03T18:21:19.834Z,3.93
2022-11-03T18:23:46.868Z,3.30
2022-11-03T18:26:17.295Z,3.53
2022-11-03T18:28:44.384Z,3.37
2022-11-03T18:31:33.824Z,3.90
2022-11-03T18:34:04.187Z,3.63
2022-11-03T18:36:33.624Z,4.00
2022-11-03T18:39:01.793Z,4.07
2022-11-03T18:41:40.751Z,3.47
2022-11-03T18:44:20.996Z,4.03
2022-11-03T18:46:49.057Z,4.17
2022-11-03T18:49:16.155Z,4.10
2022-11-03T18:51:49.275Z,3.53
2022-11-03T18:54:21.939Z,4.17
2022-11-03T18:56:49.373Z,4.07
2022-11-03T18:59:26.769Z,4.07
2022-11-03T19:01:54.108Z,3.80
2022-11-03T19:04:21.388Z,3.70
2022-11-03T19:06:50.015Z,4.60
2022-11-03T19:09:21.670Z,3.70
2022-11-03T19:11:49.270Z,3.60
2022-11-03T19:14:35.351Z,4.07
2022-11-03T19:19:53.644Z,4.43
2022-11-03T19:22:22.323Z,4.27
2022-11-03T19:24:49.141Z,4.13
2022-11-03T19:27:20.287Z,4.40
2022-11-03T19:29:48.153Z,4.07
2022-11-03T19:32:26.559Z,4.57
2022-11-03T19:34:58.256Z,3.90
2022-11-03T19:37:25.518Z,4.80
2022-11-03T19:39:52.486Z,5.07
2022-11-03T19:42:33.141Z,3.60
2022-11-03T19:45:01.719Z,4.30
2022-11-03T19:47:35.846Z,4.50
2022-11-03T19:50:05.152Z,3.80
2022-11-03T19:52:33.506Z,4.13
2022-11-03T19:55:05.690Z,4.10
2022-11-03T19:57:32.647Z,4.50
2022-11-03T19:59:59.558Z,4.20
2022-11-03T20:02:28.021Z,4.40
2022-11-03T20:04:55.174Z,4.53
2022-11-03T20:07:23.514Z,3.93
2022-11-03T20:09:52.471Z,3.73
2022-11-03T20:12:20.291Z,3.93
2022-11-03T20:14:47.078Z,4.00
2022-11-03T20:17:17.157Z,4.27
2022-11-03T20:19:44.369Z,4.37
2022-11-03T20:22:16.991Z,4.77
2022-11-03T20:24:46.615Z,4.57
2022-11-03T20:27:15.968Z,4.57
2022-11-03T20:29:42.914Z,4.80
2022-11-03T20:32:12.628Z,4.20
2022-11-03T20:34:42.537Z,4.10
2022-11-03T20:37:19.778Z,4.60
2022-11-03T20:39:47.717Z,4.40
2022-11-03T20:42:22.401Z,4.40
2022-11-03T20:44:49.882Z,4.53
2022-11-03T20:47:17.825Z,4.73
2022-11-03T20:49:45.801Z,4.70
2022-11-03T20:52:13.952Z,4.80
2022-11-03T20:54:43.221Z,4.60
2022-11-03T20:57:15.101Z,4.70
2022-11-03T20:59:42.067Z,5.47
2022-11-03T21:02:17.636Z,5.33
2022-11-03T21:04:45.070Z,5.00
2022-11-03T21:07:13.292Z,5.00
2022-11-03T21:09:41.433Z,5.80
2022-11-03T21:12:12.096Z,5.10
2022-11-03T21:15:01.274Z,5.40
2022-11-03T21:17:46.579Z,5.40
2022-11-03T21:20:13.827Z,6.03
2022-11-03T21:22:53.228Z,5.53
2022-11-03T21:25:26.104Z,5.63
2022-11-03T21:27:54.638Z,6.03
2022-11-03T21:30:22.152Z,5.67
2022-11-03T21:32:49.061Z,6.30
2022-11-03T21:35:19.318Z,6.10
2022-11-03T21:37:46.247Z,6.63
2022-11-03T21:40:13.077Z,6.00
2022-11-03T21:42:58.517Z,5.67
2022-11-03T21:45:25.483Z,5.83
2022-11-03T21:48:18.662Z,5.90
2022-11-03T21:50:45.709Z,6.27
2022-11-03T21:53:12.877Z,5.43
2022-11-03T21:55:39.925Z,5.33
2022-11-03T21:58:06.897Z,5.50
2022-11-03T22:00:33.843Z,6.43
2022-11-03T22:03:01.206Z,6.03
2022-11-03T22:05:28.289Z,5.40
2022-11-03T22:07:55.273Z,4.70
2022-11-03T22:10:22.683Z,4.60
2022-11-03T22:12:49.394Z,5.00
2022-11-03T22:15:34.816Z,5.30
2022-11-03T22:18:06.287Z,5.10
2022-11-03T22:20:52.257Z,4.80
2022-11-03T22:23:37.920Z,5.27
2022-11-03T22:26:23.104Z,5.20
2022-11-03T22:29:09.842Z,4.30
2022-11-03T22:31:42.698Z,4.30
2022-11-03T22:34:27.993Z,4.23
2022-11-03T22:36:54.814Z,4.10
2022-11-03T22:39:40.280Z,4.20
2022-11-03T22:42:30.136Z,4.30
2022-11-03T22:45:15.740Z,4.73
2022-11-03T22:47:42.511Z,4.03
2022-11-03T22:50:09.576Z,4.00
2022-11-03T22:52:36.316Z,4.93
2022-11-03T22:55:03.270Z,4.40
2022-11-03T22:57:30.127Z,4.30
2022-11-03T22:59:56.918Z,4.50
2022-11-03T23:02:24.395Z,4.17
2022-11-03T23:04:51.187Z,4.30
2022-11-03T23:07:17.941Z,4.47
2022-11-03T23:12:20.149Z,4.40
2022-11-03T23:15:06.482Z,4.60
2022-11-03T23:17:52.263Z,4.37
2022-11-03T23:20:37.852Z,4.23
2022-11-03T23:23:05.500Z,4.37
2022-11-03T23:25:32.639Z,4.07
2022-11-03T23:27:59.455Z,4.43
2022-11-03T23:30:26.160Z,4.33
2022-11-03T23:32:52.856Z,3.63
2022-11-03T23:35:19.730Z,3.90
2022-11-03T23:37:46.520Z,4.33
2022-11-03T23:40:17.186Z,4.20
2022-11-03T23:42:47.400Z,3.97
2022-11-03T23:45:32.733Z,4.23
2022-11-03T23:48:18.212Z,3.80
2022-11-03T23:50:45.005Z,3.60
2022-11-03T23:53:11.792Z,4.17
2022-11-03T23:56:01.432Z,3.60
2022-11-03T23:58:28.483Z,3.63
